Veersedijk — PBCX — position and weather

sailwx.info

Track history (hours):
 
Tides and Currents Weather Stations Pressure Air Temp Water Temp Dewpoint Dewpoint Depression Visibility Wind Speed Wind Dir Waves Ship Positions

Veersedijk

Last reported at 2017-Jan-19 20:30 UTC. Time now 2017-Jan-20 20:15 UTC.
Position N 50°24' E 000°08'.

Length 132 m; draft 5.2 m.

Type: Cargo ship. MMSI: 244268000.

Date/timePositionNaut miles runAvg speedWind from/ knotsBaromVisibWave heightAir tempDewpointWater temp
2017-Jan-19 20:30N 50°24' E 000°08'  
2017-Jan-12 03:27N 50°12' W 000°02'8 1.3
2017-Jan-11 21:13N 50°20' W 000°00'4 6.3
2017-Jan-11 20:33N 50°24' W 000°03'1 0.9
2017-Jan-11 19:04N 50°25' W 000°02'1 2.8
2017-Jan-11 18:33N 50°27' W 000°02'4 3.6
2017-Jan-11 17:31N 50°30' W 000°05'1 1.0
2017-Jan-11 16:33N 50°31' W 000°04'0 0.3
2017-Jan-11 15:28N 50°31' W 000°04'2 1.8
2017-Jan-11 14:33N 50°31' W 000°02'1 0.8
2017-Jan-11 13:33N 50°32' W 000°01'0 0.4
2017-Jan-11 12:30N 50°31' W 000°01'1 0.9
2017-Jan-11 11:33N 50°31' E 000°00'2 1.5
2017-Jan-11 10:30N 50°30' W 000°02'1 0.7
2017-Jan-11 09:30N 50°30' W 000°03'1 1.3
2017-Jan-11 08:33N 50°30' W 000°05'1 1.1
2017-Jan-11 07:31N 50°30' W 000°07'1 1.3
2017-Jan-11 06:29N 50°30' W 000°05'5 4.4
2017-Jan-11 05:27N 50°25' W 000°04'1 1.4
2017-Jan-11 04:29N 50°25' W 000°07'0 0.4
2017-Jan-11 03:30N 50°25' W 000°07'1 0.4
2017-Jan-11 02:15N 50°25' W 000°06'1 0.7
2017-Jan-11 01:27N 50°25' W 000°06'1 0.8
2017-Jan-11 00:18N 50°25' W 000°04'  
Track history (hours):
 
Tides and Currents Weather Stations Pressure Air Temp Water Temp Dewpoint Dewpoint Depression Visibility Wind Speed Wind Dir Waves Ship Positions

Veersedijk

Last reported at 2017-Jan-19 20:30 UTC. Time now 2017-Jan-20 20:15 UTC.
Position N 50°24' E 000°08'.

Length 132 m; draft 5.2 m.

Type: Cargo ship. MMSI: 244268000.

Date/timePositionNaut miles runAvg speedWind from/ knotsBaromVisibWave heightAir tempDewpointWater temp
2017-Jan-19 20:30N 50°24' E 000°08'  
2017-Jan-12 03:27N 50°12' W 000°02'8 1.3
2017-Jan-11 21:13N 50°20' W 000°00'4 6.3
2017-Jan-11 20:33N 50°24' W 000°03'1 0.9
2017-Jan-11 19:04N 50°25' W 000°02'1 2.8
2017-Jan-11 18:33N 50°27' W 000°02'4 3.6
2017-Jan-11 17:31N 50°30' W 000°05'1 1.0
2017-Jan-11 16:33N 50°31' W 000°04'0 0.3
2017-Jan-11 15:28N 50°31' W 000°04'2 1.8
2017-Jan-11 14:33N 50°31' W 000°02'1 0.8
2017-Jan-11 13:33N 50°32' W 000°01'0 0.4
2017-Jan-11 12:30N 50°31' W 000°01'1 0.9
2017-Jan-11 11:33N 50°31' E 000°00'2 1.5
2017-Jan-11 10:30N 50°30' W 000°02'1 0.7
2017-Jan-11 09:30N 50°30' W 000°03'1 1.3
2017-Jan-11 08:33N 50°30' W 000°05'1 1.1
2017-Jan-11 07:31N 50°30' W 000°07'1 1.3
2017-Jan-11 06:29N 50°30' W 000°05'5 4.4
2017-Jan-11 05:27N 50°25' W 000°04'1 1.4
2017-Jan-11 04:29N 50°25' W 000°07'0 0.4
2017-Jan-11 03:30N 50°25' W 000°07'1 0.4
2017-Jan-11 02:15N 50°25' W 000°06'1 0.7
2017-Jan-11 01:27N 50°25' W 000°06'1 0.8
2017-Jan-11 00:18N 50°25' W 000°04'  

Dump ship's entire track history